createdAt,value
2022-08-28T00:00:56.406Z,100031.94
2022-08-28T00:05:59.944Z,100035.41
2022-08-28T00:11:04.468Z,100048.41
2022-08-28T00:16:07.908Z,100036.69
2022-08-28T00:21:11.130Z,100047.56
2022-08-28T00:26:35.634Z,100047.72
2022-08-28T00:31:39.652Z,100053.16
2022-08-28T00:36:42.454Z,100055.00
2022-08-28T00:41:46.588Z,100050.88
2022-08-28T00:46:51.569Z,100042.31
2022-08-28T00:52:15.265Z,100033.06
2022-08-28T00:57:27.082Z,100033.16
2022-08-28T01:02:31.832Z,100024.16
2022-08-28T01:07:34.910Z,100026.03
2022-08-28T01:12:39.850Z,100027.16
2022-08-28T01:17:47.285Z,100022.03
2022-08-28T01:22:59.109Z,100026.63
2022-08-28T01:28:07.391Z,100035.78
2022-08-28T01:33:10.245Z,100043.06
2022-08-28T01:38:17.615Z,100044.06
2022-08-28T01:43:26.725Z,100045.06
2022-08-28T01:48:31.919Z,100045.94
2022-08-28T01:53:34.714Z,100050.66
2022-08-28T01:58:39.307Z,100057.13
2022-08-28T02:03:43.073Z,100059.25
2022-08-28T02:08:46.636Z,100065.09
2022-08-28T02:13:52.028Z,100062.69
2022-08-28T02:18:57.143Z,100073.00
2022-08-28T02:23:59.863Z,100069.56
2022-08-28T02:29:04.809Z,100071.03
2022-08-28T02:34:07.844Z,100073.00
2022-08-28T02:39:10.960Z,100069.59
2022-08-28T02:44:14.973Z,100073.44
2022-08-28T02:49:17.652Z,100077.31
2022-08-28T02:54:21.117Z,100077.59
2022-08-28T02:59:25.727Z,100084.03
2022-08-28T03:04:28.856Z,100064.47
2022-08-28T03:09:31.778Z,100073.91
2022-08-28T03:14:35.951Z,100083.91
2022-08-28T03:19:38.664Z,100083.34
2022-08-28T03:24:41.373Z,100087.06
2022-08-28T03:29:45.493Z,100085.63
2022-08-28T03:34:48.395Z,100087.66
2022-08-28T03:39:51.164Z,100093.34
2022-08-28T03:44:55.256Z,100101.66
2022-08-28T03:49:58.832Z,100103.66
2022-08-28T03:55:01.860Z,100107.38
2022-08-28T04:00:09.508Z,100111.22
2022-08-28T04:05:15.715Z,100115.94
2022-08-28T04:10:18.611Z,100112.50
2022-08-28T04:15:23.202Z,100120.78
2022-08-28T04:20:26.395Z,100121.91
2022-08-28T04:25:29.098Z,100119.31
2022-08-28T04:30:33.151Z,100123.19
2022-08-28T04:35:35.867Z,100125.19
2022-08-28T04:40:40.418Z,100132.59
2022-08-28T04:45:46.320Z,100131.75
2022-08-28T04:50:50.335Z,100126.63
2022-08-28T04:55:55.223Z,100141.03
2022-08-28T05:00:59.719Z,100143.88
2022-08-28T05:06:04.092Z,100145.03
2022-08-28T05:11:33.695Z,100147.03
2022-08-28T05:16:44.116Z,100146.16
2022-08-28T05:21:47.855Z,100153.44
2022-08-28T05:26:50.603Z,100148.00
2022-08-28T05:31:54.843Z,100157.16
2022-08-28T05:36:58.055Z,100164.44
2022-08-28T05:42:00.996Z,100177.28
2022-08-28T05:47:05.232Z,100180.00
2022-08-28T05:52:07.908Z,100190.97
2022-08-28T05:57:10.970Z,100193.81
2022-08-28T06:02:15.206Z,100194.84
2022-08-28T06:07:19.339Z,100200.25
2022-08-28T06:12:23.536Z,100195.97
2022-08-28T06:17:27.712Z,100201.53
2022-08-28T06:22:30.649Z,100216.09
2022-08-28T06:27:34.171Z,100218.94
2022-08-28T06:32:38.656Z,100218.09
2022-08-28T06:37:41.495Z,100219.94
2022-08-28T06:42:44.367Z,100225.38
2022-08-28T06:47:49.575Z,100222.66
2022-08-28T06:52:56.008Z,100227.09
2022-08-28T06:57:58.694Z,100234.38
2022-08-28T07:03:04.790Z,100240.34
2022-08-28T07:08:07.459Z,100236.47
2022-08-28T07:13:10.110Z,100239.88
2022-08-28T07:18:14.455Z,100251.06
2022-08-28T07:23:17.266Z,100249.63
2022-08-28T07:28:20.029Z,100245.34
2022-08-28T07:33:24.366Z,100242.91
2022-08-28T07:38:27.732Z,100244.31
2022-08-28T07:43:47.775Z,100249.19
2022-08-28T07:48:53.532Z,100252.38
2022-08-28T07:53:57.854Z,100256.53
2022-08-28T07:59:03.312Z,100255.53
2022-08-28T08:04:08.368Z,100256.41
2022-08-28T08:09:13.449Z,100259.09
2022-08-28T08:14:18.183Z,100264.38
2022-08-28T08:19:22.410Z,100269.69
2022-08-28T08:24:26.836Z,100268.69
2022-08-28T08:29:32.226Z,100273.13
2022-08-28T08:34:39.767Z,100277.69
2022-08-28T08:39:43.976Z,100279.25
2022-08-28T08:44:49.172Z,100264.31
2022-08-28T08:50:03.498Z,100264.31
2022-08-28T08:55:16.703Z,100265.91
2022-08-28T09:00:21.283Z,100270.34
2022-08-28T09:05:35.117Z,100278.31
2022-08-28T09:10:42.229Z,100264.53
2022-08-28T09:15:50.636Z,100268.09
2022-08-28T09:20:56.654Z,100272.50
2022-08-28T09:26:02.352Z,100279.53
2022-08-28T09:31:08.390Z,100280.38
2022-08-28T09:36:32.307Z,100273.13
2022-08-28T09:41:57.159Z,100272.81
2022-08-28T09:46:59.995Z,100276.41
2022-08-28T09:52:23.149Z,100275.28
2022-08-28T09:57:28.121Z,100277.13
2022-08-28T10:02:41.702Z,100268.34
2022-08-28T10:07:52.291Z,100271.34
2022-08-28T10:13:10.379Z,100273.91
2022-08-28T10:18:35.542Z,100284.47
2022-08-28T10:23:55.761Z,100279.06
2022-08-28T10:29:10.878Z,100284.81
2022-08-28T10:34:32.742Z,100278.25
2022-08-28T10:39:49.499Z,100275.41
2022-08-28T10:44:57.937Z,100277.56
2022-08-28T10:50:09.852Z,100272.59
2022-08-28T10:55:19.861Z,100275.38
2022-08-28T11:00:26.374Z,100263.94
2022-08-28T11:05:34.621Z,100258.44
2022-08-28T11:10:49.197Z,100261.41
2022-08-28T11:15:54.689Z,100261.94
2022-08-28T11:21:05.038Z,100253.44
2022-08-28T11:26:12.757Z,100263.16
2022-08-28T11:31:35.450Z,100271.63
2022-08-28T11:37:00.265Z,100279.41
2022-08-28T11:42:36.441Z,100281.84
2022-08-28T11:47:52.258Z,100275.56
2022-08-28T11:53:34.369Z,100266.59
2022-08-28T11:58:45.538Z,100268.44
2022-08-28T12:03:57.559Z,100260.34
2022-08-28T12:09:04.935Z,100266.09
2022-08-28T12:14:10.170Z,100253.06
2022-08-28T12:19:28.715Z,100253.81
2022-08-28T12:24:31.437Z,100251.69
2022-08-28T12:29:44.949Z,100248.31
2022-08-28T12:34:54.016Z,100248.66
2022-08-28T12:40:02.939Z,100243.72
2022-08-28T12:45:11.091Z,100244.53
2022-08-28T12:50:30.844Z,100249.25
2022-08-28T12:55:34.489Z,100245.91
2022-08-28T13:00:50.808Z,100245.94
2022-08-28T13:06:01.258Z,100246.03
2022-08-28T13:11:04.957Z,100242.53
2022-08-28T13:16:10.614Z,100247.38
2022-08-28T13:21:34.305Z,100239.19
2022-08-28T13:26:38.497Z,100237.38
2022-08-28T13:31:43.231Z,100225.31
2022-08-28T13:36:49.086Z,100222.16
2022-08-28T13:41:56.255Z,100229.19
2022-08-28T13:47:01.887Z,100217.34
2022-08-28T13:52:07.475Z,100225.81
2022-08-28T13:57:13.431Z,100225.13
2022-08-28T14:02:35.482Z,100218.66
2022-08-28T14:07:39.322Z,100222.09
2022-08-28T14:12:43.121Z,100222.09
2022-08-28T14:17:47.165Z,100213.97
2022-08-28T14:22:49.888Z,100225.53
2022-08-28T14:27:52.548Z,100217.94
2022-08-28T14:32:57.356Z,100221.69
2022-08-28T14:38:00.070Z,100210.78
2022-08-28T14:43:02.842Z,100220.50
2022-08-28T14:48:07.233Z,100217.34
2022-08-28T14:53:10.941Z,100227.63
2022-08-28T14:58:14.804Z,100220.19
2022-08-28T15:03:20.723Z,100226.59
2022-08-28T15:08:23.639Z,100225.00
2022-08-28T15:13:26.440Z,100221.28
2022-08-28T15:18:36.003Z,100223.72
2022-08-28T15:23:38.759Z,100213.78
2022-08-28T15:28:45.968Z,100208.34
2022-08-28T15:33:50.125Z,100219.78
2022-08-28T15:39:10.860Z,100215.63
2022-08-28T15:44:15.105Z,100208.38
2022-08-28T15:49:20.801Z,100210.59
2022-08-28T15:54:27.503Z,100214.56
2022-08-28T15:59:47.882Z,100212.53
2022-08-28T16:04:55.578Z,100208.50
2022-08-28T16:09:58.413Z,100212.69
2022-08-28T16:15:01.178Z,100210.41
2022-08-28T16:20:06.397Z,100213.63
2022-08-28T16:25:15.076Z,100211.47
2022-08-28T16:30:18.469Z,100223.50
2022-08-28T16:35:23.492Z,100216.75
2022-08-28T16:40:26.211Z,100211.41
2022-08-28T16:45:29.595Z,100220.50
2022-08-28T16:50:33.987Z,100212.16
2022-08-28T16:55:38.353Z,100221.13
2022-08-28T17:00:52.273Z,100211.72
2022-08-28T17:06:02.964Z,100227.72
2022-08-28T17:11:06.653Z,100217.38
2022-08-28T17:16:10.442Z,100234.72
2022-08-28T17:21:32.215Z,100223.16
2022-08-28T17:26:35.321Z,100225.72
2022-08-28T17:31:38.752Z,100231.47
2022-08-28T17:36:43.327Z,100232.03
2022-08-28T17:41:46.563Z,100234.19
2022-08-28T17:46:49.318Z,100233.66
2022-08-28T17:51:53.429Z,100237.31
2022-08-28T17:56:56.825Z,100240.63
2022-08-28T18:01:59.888Z,100236.63
2022-08-28T18:07:04.233Z,100247.19
2022-08-28T18:12:12.206Z,100255.34
2022-08-28T18:17:16.155Z,100257.31
2022-08-28T18:22:20.335Z,100268.16
2022-08-28T18:27:23.702Z,100274.03
2022-08-28T18:32:26.705Z,100274.88
2022-08-28T18:37:30.738Z,100281.84
2022-08-28T18:42:33.950Z,100288.88
2022-08-28T18:47:37.251Z,100289.91
2022-08-28T18:52:41.845Z,100306.91
2022-08-28T18:57:44.888Z,100300.22
2022-08-28T19:02:49.739Z,100299.94
2022-08-28T19:07:54.050Z,100307.66
2022-08-28T19:12:56.966Z,100304.94
2022-08-28T19:18:00.438Z,100316.53
2022-08-28T19:23:04.618Z,100318.56
2022-08-28T19:28:07.523Z,100318.41
2022-08-28T19:33:12.480Z,100331.16
2022-08-28T19:38:17.873Z,100329.44
2022-08-28T19:43:20.664Z,100339.72
2022-08-28T19:48:23.485Z,100342.88
2022-08-28T19:53:27.593Z,100341.59
2022-08-28T19:58:30.263Z,100352.78
2022-08-28T20:03:34.069Z,100354.66
2022-08-28T20:08:38.105Z,100363.66
2022-08-28T20:13:41.612Z,100354.31
2022-08-28T20:18:44.325Z,100358.47
2022-08-28T20:23:48.535Z,100360.34
2022-08-28T20:28:52.616Z,100363.81
2022-08-28T20:33:55.404Z,100362.94
2022-08-28T20:38:59.996Z,100361.50
2022-08-28T20:44:04.972Z,100366.38
2022-08-28T20:49:08.047Z,100366.66
2022-08-28T20:54:12.828Z,100363.81
2022-08-28T20:59:15.820Z,100372.00
2022-08-28T21:04:18.977Z,100372.56
2022-08-28T21:09:33.462Z,100388.00
2022-08-28T21:14:51.478Z,100390.16
2022-08-28T21:19:54.625Z,100397.91
2022-08-28T21:24:59.941Z,100410.22
2022-08-28T21:30:03.340Z,100417.22
2022-08-28T21:35:09.429Z,100405.06
2022-08-28T21:40:16.608Z,100415.22
2022-08-28T21:45:20.048Z,100422.09
2022-08-28T21:50:23.119Z,100422.34
2022-08-28T21:55:27.190Z,100424.38
2022-08-28T22:00:30.513Z,100432.25
2022-08-28T22:05:33.290Z,100434.69
2022-08-28T22:10:40.435Z,100429.38
2022-08-28T22:15:45.526Z,100430.38
2022-08-28T22:21:05.910Z,100437.94
2022-08-28T22:26:12.318Z,100438.41
2022-08-28T22:31:15.521Z,100438.66
2022-08-28T22:36:22.228Z,100449.09
2022-08-28T22:41:27.612Z,100453.84
2022-08-28T22:46:30.420Z,100453.41
2022-08-28T22:51:35.212Z,100454.53
2022-08-28T22:56:39.217Z,100446.81
2022-08-28T23:01:43.564Z,100448.09
2022-08-28T23:06:46.272Z,100452.22
2022-08-28T23:11:50.429Z,100457.06
2022-08-28T23:16:54.958Z,100457.38
2022-08-28T23:21:57.731Z,100464.22
2022-08-28T23:27:19.384Z,100470.16
2022-08-28T23:32:24.431Z,100464.00
2022-08-28T23:37:27.433Z,100465.28
2022-08-28T23:42:31.629Z,100465.69
2022-08-28T23:47:34.735Z,100469.69
2022-08-28T23:52:44.283Z,100468.09
2022-08-28T23:57:52.347Z,100476.66
